createdAt,value
2022-09-27T00:04:53.513Z,9.74
2022-09-27T00:10:12.463Z,9.75
2022-09-27T00:15:32.098Z,9.63
2022-09-27T00:20:51.243Z,9.52
2022-09-27T00:26:11.191Z,9.45
2022-09-27T00:31:30.607Z,9.43
2022-09-27T00:36:49.557Z,9.34
2022-09-27T00:42:08.935Z,9.32
2022-09-27T00:47:28.021Z,9.3
2022-09-27T00:52:46.518Z,9.27
2022-09-27T00:58:06.011Z,9.2
2022-09-27T01:03:25.365Z,9.18
2022-09-27T01:08:44.520Z,9.18
2022-09-27T01:14:04.429Z,9.14
2022-09-27T01:19:23.617Z,9.1
2022-09-27T01:24:43.480Z,9.1
2022-09-27T01:30:03.246Z,9.1
2022-09-27T01:35:22.610Z,9.1
2022-09-27T01:40:40.790Z,9.1
2022-09-27T01:45:59.849Z,9.1
2022-09-27T01:51:19.040Z,9.1
2022-09-27T01:56:37.836Z,9.1
2022-09-27T02:01:57.820Z,9.1
2022-09-27T02:07:17.674Z,9.13
2022-09-27T02:12:37.926Z,9.21
2022-09-27T02:17:56.559Z,9.22
2022-09-27T02:23:16.294Z,9.2
2022-09-27T02:28:36.272Z,9.18
2022-09-27T02:35:10.454Z,9.2
2022-09-27T02:39:24.713Z,9.2
2022-09-27T02:44:32.962Z,9.18
2022-09-27T02:49:52.338Z,9.21
2022-09-27T02:55:11.243Z,9.21
2022-09-27T03:00:29.831Z,9.18
2022-09-27T03:05:49.249Z,9.1
2022-09-27T03:11:08.660Z,9.03
2022-09-27T03:16:28.321Z,9
2022-09-27T03:21:47.646Z,8.96
2022-09-27T03:27:06.675Z,8.89
2022-09-27T03:32:26.695Z,8.85
2022-09-27T03:37:46.008Z,8.82
2022-09-27T03:43:05.485Z,8.82
2022-09-27T03:48:27.878Z,8.84
2022-09-27T03:53:43.459Z,8.91
2022-09-27T03:59:02.630Z,9
2022-09-27T04:04:21.484Z,8.97
2022-09-27T04:09:44.505Z,8.99
2022-09-27T04:15:00.184Z,8.97
2022-09-27T04:20:19.791Z,9.01
2022-09-27T04:25:39.181Z,8.97
2022-09-27T04:30:58.762Z,9.03
2022-09-27T04:36:18.051Z,9.01
2022-09-27T04:41:36.752Z,9.03
2022-09-27T04:46:56.145Z,9.04
2022-09-27T04:52:15.015Z,9.01
2022-09-27T04:57:34.444Z,9.03
2022-09-27T05:02:53.314Z,9.1
2022-09-27T05:08:12.902Z,9.04
2022-09-27T05:13:32.532Z,9.03
2022-09-27T05:18:52.038Z,9.03
2022-09-27T05:24:11.631Z,9.03
2022-09-27T05:29:31.114Z,9.07
2022-09-27T05:34:49.983Z,9.09
2022-09-27T05:40:22.870Z,9.07
2022-09-27T05:45:28.782Z,8.99
2022-09-27T05:50:47.853Z,8.93
2022-09-27T05:57:22.079Z,8.93
2022-09-27T06:01:26.828Z,8.93
2022-09-27T06:06:45.811Z,8.93
2022-09-27T06:12:04.291Z,8.93
2022-09-27T06:17:23.655Z,8.99
2022-09-27T06:22:42.565Z,9.03
2022-09-27T06:28:02.734Z,9.01
2022-09-27T06:33:21.356Z,9.03
2022-09-27T06:38:40.408Z,9.1
2022-09-27T06:43:59.707Z,9.2
2022-09-27T06:49:19.002Z,9.38
2022-09-27T06:54:38.326Z,9.47
2022-09-27T06:59:58.529Z,9.67
2022-09-27T07:05:17.517Z,9.68
2022-09-27T07:10:37.248Z,9.57
2022-09-27T07:15:56.499Z,9.51
2022-09-27T07:21:15.688Z,9.35
2022-09-27T07:27:49.538Z,9.27
2022-09-27T07:37:14.863Z,9.35
2022-09-27T07:45:47.965Z,9.18
2022-09-27T07:58:32.245Z,9.91
2022-09-27T08:03:51.541Z,9.82
2022-09-27T08:09:10.951Z,9.75
2022-09-27T08:14:30.169Z,9.92
2022-09-27T08:23:03.236Z,10.02
2022-09-27T08:25:09.016Z,10.03
2022-09-27T08:30:28.442Z,10
2022-09-27T08:35:47.415Z,10.1
2022-09-27T08:41:06.309Z,10.16
2022-09-27T08:46:23.179Z,10.29
2022-09-27T08:51:42.387Z,10.26
2022-09-27T08:57:01.892Z,10.26
2022-09-27T09:02:21.122Z,10.17
2022-09-27T09:08:55.233Z,10.12
2022-09-27T09:12:59.273Z,9.95
2022-09-27T09:18:18.869Z,9.85
2022-09-27T09:23:38.180Z,10.17
2022-09-27T09:28:57.741Z,10.39
2022-09-27T09:34:17.103Z,10.81
2022-09-27T09:39:36.097Z,11.42
2022-09-27T09:46:10.305Z,11.15
2022-09-27T09:50:16.276Z,10.95
2022-09-27T09:58:49.337Z,10.74
2022-09-27T10:03:05.872Z,10.56
2022-09-27T10:06:13.829Z,10.43
2022-09-27T10:11:32.799Z,10.49
2022-09-27T10:16:49.783Z,10.51
2022-09-27T10:22:09.893Z,10.22
2022-09-27T10:27:28.041Z,10.03
2022-09-27T10:32:47.683Z,10.32
2022-09-27T10:38:06.536Z,10.33
2022-09-27T10:43:28.809Z,10.22
2022-09-27T10:49:59.469Z,10.71
2022-09-27T10:55:45.971Z,11.18
2022-09-27T11:04:19.230Z,11.08
2022-09-27T11:12:52.078Z,10.72
2022-09-27T11:17:07.475Z,10.67
2022-09-27T11:24:06.090Z,10.57
2022-09-27T11:32:59.256Z,10.94
2022-09-27T11:38:29.810Z,11.09
2022-09-27T11:43:36.756Z,10.05
2022-09-27T11:48:56.091Z,9.22
2022-09-27T11:55:30.226Z,8.7
2022-09-27T11:59:34.846Z,8.93
2022-09-27T12:04:54.377Z,9.42
2022-09-27T12:10:12.792Z,9.67
2022-09-27T12:15:32.494Z,9.62
2022-09-27T12:20:52.634Z,9.75
2022-09-27T12:26:11.178Z,9.74
2022-09-27T12:31:31.103Z,9.68
2022-09-27T12:36:50.346Z,9.47
2022-09-27T12:43:24.516Z,9.39
2022-09-27T12:47:30.133Z,9.43
2022-09-27T12:52:49.053Z,9.58
2022-09-27T13:01:22.277Z,9.78
2022-09-27T13:09:55.174Z,10.41
2022-09-27T13:14:05.927Z,10.81
2022-09-27T13:19:27.150Z,10.95
2022-09-27T13:24:44.824Z,10.98
2022-09-27T13:33:17.880Z,11.08
2022-09-27T13:37:34.422Z,10.87
2022-09-27T13:40:41.719Z,10.68
2022-09-27T13:47:40.236Z,10.46
2022-09-27T13:56:40.659Z,9.74
2022-09-27T14:02:00.212Z,9.5
2022-09-27T14:07:19.562Z,9.47
2022-09-27T14:12:38.976Z,9.59
2022-09-27T14:21:12.030Z,9.26
2022-09-27T14:25:27.416Z,8.52
2022-09-27T14:28:34.486Z,8.08
2022-09-27T14:35:08.723Z,7.62
2022-09-27T14:39:25.187Z,7.5
2022-09-27T14:44:32.478Z,7.67
2022-09-27T14:51:31.067Z,8.04
2022-09-27T15:00:32.339Z,8.76
2022-09-27T15:05:50.583Z,8.6
2022-09-27T15:12:49.184Z,8.76
2022-09-27T15:17:05.681Z,9.01
2022-09-27T15:32:28.668Z,8.96
2022-09-27T15:43:06.702Z,9.14
2022-09-27T15:53:44.982Z,9.34
2022-09-27T15:59:03.825Z,9.41
2022-09-27T16:04:22.945Z,9.51
2022-09-27T16:09:42.207Z,9.58
2022-09-27T16:18:15.252Z,9.59
2022-09-27T16:26:48.309Z,9.55
2022-09-27T16:36:17.883Z,9.32
2022-09-27T16:41:48.492Z,9.01
2022-09-27T16:50:10.573Z,8.84
2022-09-27T16:54:25.921Z,8.82
2022-09-27T16:57:33.498Z,8.68
2022-09-27T17:02:53.020Z,8.58
2022-09-27T17:09:26.704Z,8.51
2022-09-27T17:13:31.083Z,8.47
2022-09-27T17:18:50.671Z,8.56
2022-09-27T17:24:09.576Z,8.6
2022-09-27T17:29:28.465Z,8.62
2022-09-27T17:34:48.719Z,8.63
2022-09-27T17:41:22.897Z,8.68
2022-09-27T17:45:28.730Z,8.7
2022-09-27T17:50:47.663Z,8.62
2022-09-27T17:56:07.121Z,8.41
2022-09-27T18:01:24.468Z,8.31
2022-09-27T18:06:43.894Z,8.25
2022-09-27T18:12:04.060Z,8.21
2022-09-27T18:17:23.505Z,8.22
2022-09-27T18:23:57.655Z,8.2
2022-09-27T18:28:02.252Z,8.24
2022-09-27T18:33:21.621Z,8.24
2022-09-27T18:39:55.787Z,8.21
2022-09-27T18:43:59.346Z,8.1
2022-09-27T18:49:21.140Z,8.14
2022-09-27T18:54:38.708Z,8.14
2022-09-27T18:59:56.615Z,8.2
2022-09-27T19:05:16.576Z,8.28
2022-09-27T19:10:35.348Z,8.27
2022-09-27T19:15:55.457Z,8.22
2022-09-27T19:21:13.969Z,8.22
2022-09-27T19:26:33.726Z,8.17
2022-09-27T19:31:53.026Z,8.08
2022-09-27T19:37:12.586Z,8
2022-09-27T19:42:31.356Z,7.98
2022-09-27T19:47:51.027Z,8.08
2022-09-27T19:53:09.240Z,8.1
2022-09-27T19:58:28.423Z,8.17
2022-09-27T20:03:48.230Z,8.14
2022-09-27T20:09:06.470Z,8.14
2022-09-27T20:14:26.737Z,8.17
2022-09-27T20:19:44.869Z,8.14
2022-09-27T20:25:05.304Z,8.2
2022-09-27T20:30:23.486Z,8.21
2022-09-27T20:35:43.859Z,8.2
2022-09-27T20:42:17.993Z,8.14
2022-09-27T20:46:43.704Z,8.1
2022-09-27T20:51:42.330Z,7.95
2022-09-27T20:57:00.958Z,7.81
2022-09-27T21:02:20.553Z,7.71
2022-09-27T21:07:40.658Z,7.7
2022-09-27T21:12:58.627Z,7.6
2022-09-27T21:18:18.155Z,7.53
2022-09-27T21:23:40.892Z,7.52
2022-09-27T21:28:56.264Z,7.49
2022-09-27T21:34:15.879Z,7.59
2022-09-27T21:39:35.392Z,7.59
2022-09-27T21:44:54.998Z,7.66
2022-09-27T21:50:15.470Z,7.71
2022-09-27T21:55:34.319Z,7.62
2022-09-27T22:00:54.673Z,7.52
2022-09-27T22:06:14.447Z,7.49
2022-09-27T22:13:12.999Z,7.5
2022-09-27T22:17:28.383Z,7.48
2022-09-27T22:24:26.986Z,7.58
2022-09-27T22:33:00.031Z,7.6
2022-09-27T22:41:33.110Z,7.58
2022-09-27T22:45:47.739Z,7.65
2022-09-27T22:49:21.257Z,7.69
2022-09-27T22:55:55.439Z,7.67
2022-09-27T22:59:27.842Z,7.65
2022-09-27T23:04:46.538Z,7.63
2022-09-27T23:10:04.544Z,7.53
2022-09-27T23:17:03.131Z,7.43
2022-09-27T23:20:42.596Z,7.4
2022-09-27T23:27:41.197Z,7.46
2022-09-27T23:36:42.145Z,7.49
2022-09-27T23:45:15.195Z,7.49
2022-09-27T23:47:20.297Z,7.49
2022-09-27T23:52:39.105Z,7.5
2022-09-27T23:59:13.324Z,7.53
